Time;durP1;ratioP1;P1;durP2;ratioP2;P2;SDS_P1;SDS_P2;PMS_P1;PMS_P2;Temp;Humidity;BMP_temperature;BMP_pressure;BME280_temperature;BME280_humidity;BME280_pressure;Samples;Min_cycle;Max_cycle;Signal;HPM_P1;HPM_P2
2021/03/24 00:01:09;;;;;;;41.85;25.60;;;;;;;8.64;56.82;101610.94;5053896;28;20392;-66
2021/03/24 00:03:34;;;;;;;48.53;27.27;;;;;;;8.58;57.05;101612.59;5037036;28;20423;-66
2021/03/24 00:06:00;;;;;;;50.33;30.35;;;;;;;8.91;56.15;101606.91;5054976;28;20055;-65
2021/03/24 00:08:25;;;;;;;46.38;26.77;;;;;;;9.38;55.23;101610.97;5047052;28;20087;-66
2021/03/24 00:10:51;;;;;;;47.78;28.45;;;;;;;9.49;55.15;101605.81;5053873;28;20060;-65
2021/03/24 00:13:17;;;;;;;53.38;29.42;;;;;;;9.14;55.88;101606.31;5053744;28;20062;-66
2021/03/24 00:15:42;;;;;;;47.70;26.88;;;;;;;9.68;55.27;101612.16;5053020;28;20037;-65
2021/03/24 00:18:08;;;;;;;45.50;25.75;;;;;;;9.15;56.57;101608.06;5052869;28;20125;-66
2021/03/24 00:20:36;;;;;;;46.63;27.08;;;;;;;8.90;56.99;101608.63;5035633;28;20028;-65
2021/03/24 00:23:02;;;;;;;52.10;28.52;;;;;;;8.42;57.90;101600.97;5054086;28;20032;-65
2021/03/24 00:25:28;;;;;;;50.03;29.15;;;;;;;8.45;57.76;101610.63;5054240;28;20017;-64
2021/03/24 00:27:54;;;;;;;52.00;30.88;;;;;;;8.33;58.02;101603.44;5040090;28;20052;-65
2021/03/24 00:30:26;;;;;;;50.97;29.33;;;;;;;8.33;58.36;101612.22;5053848;28;20108;-65
2021/03/24 00:32:52;;;;;;;55.42;30.92;;;;;;;9.07;56.17;101600.97;5052617;28;20486;-65
2021/03/24 00:35:18;;;;;;;48.15;29.25;;;;;;;8.82;56.62;101600.66;5053417;28;20020;-65
2021/03/24 00:37:43;;;;;;;53.53;29.60;;;;;;;8.38;57.11;101599.16;5053874;28;20047;-65
2021/03/24 00:40:12;;;;;;;54.08;30.83;;;;;;;8.39;57.58;101606.16;5046440;28;20021;-65
2021/03/24 00:42:38;;;;;;;53.85;30.65;;;;;;;8.87;56.88;101600.69;5036733;28;20025;-65
2021/03/24 00:45:05;;;;;;;55.30;31.00;;;;;;;8.84;56.13;101598.06;5053880;28;20047;-65
2021/03/24 00:47:31;;;;;;;56.45;29.63;;;;;;;9.06;55.71;101599.19;5035570;28;20025;-65
2021/03/24 00:49:56;;;;;;;57.72;30.67;;;;;;;9.44;54.86;101587.31;5053135;28;20052;-65
2021/03/24 00:52:21;;;;;;;52.45;29.23;;;;;;;9.49;54.75;101582.13;5053161;28;20036;-65
2021/03/24 00:54:47;;;;;;;53.78;30.58;;;;;;;9.37;55.86;101589.00;5049544;28;20051;-65
2021/03/24 00:57:12;;;;;;;53.95;31.08;;;;;;;9.00;56.53;101585.97;5053177;28;20078;-65
2021/03/24 00:59:37;;;;;;;58.42;32.45;;;;;;;9.18;56.25;101590.56;5052995;28;20024;-65
2021/03/24 01:02:03;;;;;;;55.10;30.58;;;;;;;9.25;55.91;101591.53;5053106;28;20033;-65
2021/03/24 01:04:28;;;;;;;62.45;31.77;;;;;;;9.21;56.42;101585.31;5052882;28;20055;-64
2021/03/24 01:06:53;;;;;;;62.85;35.05;;;;;;;8.59;57.52;101585.47;5053264;28;20449;-65
2021/03/24 01:09:19;;;;;;;56.17;30.52;;;;;;;8.90;56.91;101578.84;5052987;28;20025;-65
2021/03/24 01:11:44;;;;;;;54.53;32.55;;;;;;;8.98;56.33;101579.81;5035755;28;20021;-65
2021/03/24 01:14:10;;;;;;;58.17;33.20;;;;;;;9.18;56.75;101572.16;5052787;28;20039;-65
2021/03/24 01:16:36;;;;;;;57.22;33.08;;;;;;;9.55;55.38;101582.19;5045951;28;20025;-65
2021/03/24 01:19:02;;;;;;;58.10;32.10;;;;;;;9.11;55.98;101579.06;5052559;28;20064;-65
2021/03/24 01:21:27;;;;;;;62.03;34.13;;;;;;;9.06;56.59;101572.88;5051495;28;20043;-65
2021/03/24 01:23:53;;;;;;;59.05;33.95;;;;;;;9.33;56.13;101575.78;5052789;28;20539;-65
2021/03/24 01:26:19;;;;;;;56.63;31.92;;;;;;;9.01;56.87;101566.69;5052281;28;20451;-64
2021/03/24 01:28:45;;;;;;;56.72;33.60;;;;;;;9.55;55.71;101570.75;5043425;28;20062;-64
2021/03/24 01:31:10;;;;;;;53.40;31.05;;;;;;;9.83;54.85;101568.34;5034593;28;20087;-64
2021/03/24 01:33:36;;;;;;;59.10;31.25;;;;;;;9.98;54.44;101565.84;5037408;28;20388;-65
2021/03/24 01:36:01;;;;;;;61.17;32.53;;;;;;;10.22;53.52;101568.66;5052222;28;20079;-65
2021/03/24 01:38:27;;;;;;;56.35;30.75;;;;;;;9.31;55.98;101577.53;5052818;28;20044;-64
2021/03/24 01:40:55;;;;;;;58.28;32.33;;;;;;;9.10;56.86;101571.16;5052317;28;20435;-64
2021/03/24 01:43:47;;;;;;;58.22;31.25;;;;;;;9.01;57.34;101577.22;5050058;28;20048;-65
2021/03/24 01:46:22;;;;;;;;;;;;;;;9.14;56.90;101580.84;5048180;28;20454;-65
2021/03/24 01:48:59;;;;;;;60.47;31.60;;;;;;;9.27;56.52;101581.88;5049872;28;19935;-64
2021/03/24 01:51:31;;;;;;;59.55;31.52;;;;;;;9.67;55.62;101575.25;5052118;28;20064;-64
2021/03/24 01:53:57;;;;;;;69.47;34.30;;;;;;;8.96;57.15;101582.41;5045319;28;20036;-64
2021/03/24 01:56:23;;;;;;;60.22;34.10;;;;;;;8.77;58.01;101577.78;5052075;28;20024;-64
2021/03/24 01:58:49;;;;;;;60.58;34.53;;;;;;;8.79;57.76;101590.09;5037574;28;20029;-64
2021/03/24 02:01:16;;;;;;;62.35;31.13;;;;;;;8.52;58.97;101580.94;5051766;28;20021;-65
2021/03/24 02:03:42;;;;;;;60.22;32.50;;;;;;;8.72;58.08;101581.25;5051863;28;20040;-65
2021/03/24 02:06:23;;;;;;;57.17;32.70;;;;;;;8.72;58.02;101576.00;5051017;28;20025;-65
2021/03/24 02:08:58;;;;;;;58.30;31.75;;;;;;;9.14;56.59;101570.31;5051914;28;20024;-65
2021/03/24 02:11:34;;;;;;;57.22;32.60;;;;;;;9.48;56.23;101572.44;5050194;28;20045;-65
2021/03/24 02:14:09;;;;;;;54.58;29.67;;;;;;;9.18;56.26;101573.88;5044882;28;20457;-65
2021/03/24 02:16:40;;;;;;;55.33;33.05;;;;;;;9.50;55.67;101579.50;5033907;28;20017;-64
2021/03/24 02:19:10;;;;;;;;;;;;;;;9.57;54.90;101580.44;5049660;28;20045;-64
2021/03/24 02:21:36;;;;;;;61.08;31.80;;;;;;;9.18;54.82;101581.78;5033752;28;19955;-64
2021/03/24 02:24:23;;;;;;;58.13;34.03;;;;;;;8.81;57.04;101590.97;5040713;28;20021;-64
2021/03/24 02:27:07;;;;;;;57.83;33.17;;;;;;;8.50;58.06;101579.16;5051252;28;20029;-63
2021/03/24 02:29:34;;;;;;;62.38;32.78;;;;;;;8.30;58.29;101578.00;5050313;28;20051;-65
2021/03/24 02:32:01;;;;;;;63.75;33.55;;;;;;;8.06;58.98;101591.63;5031721;28;20030;-66
2021/03/24 02:34:27;;;;;;;59.28;34.40;;;;;;;8.00;59.35;101589.78;5029156;28;20472;-65
2021/03/24 02:36:53;;;;;;;60.85;32.78;;;;;;;7.63;60.56;101594.41;5042035;28;20158;-66
2021/03/24 02:39:20;;;;;;;65.75;33.47;;;;;;;7.95;59.39;101588.84;5043194;28;20112;-65
2021/03/24 02:41:47;;;;;;;58.83;34.10;;;;;;;7.75;60.49;101585.88;5033857;28;20044;-65
2021/03/24 02:44:12;;;;;;;60.90;33.38;;;;;;;8.00;59.38;101587.16;5034394;28;20111;-65
2021/03/24 02:46:40;;;;;;;58.65;33.38;;;;;;;8.29;58.77;101586.75;5033601;28;20104;-65
2021/03/24 02:49:05;;;;;;;63.13;34.47;;;;;;;8.23;58.88;101583.16;5034693;28;20027;-66
2021/03/24 02:51:31;;;;;;;61.70;32.92;;;;;;;8.32;58.15;101589.44;5046663;28;20033;-65
2021/03/24 02:53:56;;;;;;;59.25;33.22;;;;;;;8.47;58.21;101585.22;5050073;28;20112;-66
2021/03/24 02:56:22;;;;;;;71.65;35.03;;;;;;;8.42;58.63;101584.28;5046828;28;20033;-66
2021/03/24 02:58:50;;;;;;;61.63;32.60;;;;;;;8.27;59.03;101585.81;5051133;28;20052;-65
2021/03/24 03:01:19;;;;;;;61.72;35.35;;;;;;;8.75;57.71;101583.03;5039897;28;20024;-66
2021/03/24 03:03:53;;;;;;;63.10;32.00;;;;;;;8.17;59.35;101563.78;5050254;28;20052;-65
2021/03/24 03:06:20;;;;;;;61.63;34.72;;;;;;;8.20;58.87;101578.69;5039160;28;20033;-65
2021/03/24 03:08:54;;;;;;;62.78;32.97;;;;;;;8.02;59.43;101574.94;5038322;28;20111;-66
2021/03/24 03:11:24;;;;;;;57.65;32.45;;;;;;;7.94;59.75;101579.19;5034986;28;20021;-66
2021/03/24 03:14:19;;;;;;;62.50;33.85;;;;;;;7.96;60.10;101582.72;5040363;28;20080;-65
2021/03/24 03:16:50;;;;;;;59.35;32.55;;;;;;;8.02;59.58;101584.56;5032993;28;20041;-67
2021/03/24 03:19:23;;;;;;;64.05;32.95;;;;;;;8.24;59.07;101585.81;5020929;28;20025;-67
2021/03/24 03:21:54;;;;;;;61.05;34.00;;;;;;;8.13;59.54;101579.50;5033139;28;20040;-65
2021/03/24 03:24:20;;;;;;;;;;;;;;;8.36;58.77;101581.59;5026362;28;20028;-64
2021/03/24 03:26:46;;;;;;;59.42;32.53;;;;;;;7.99;59.87;101588.03;5034083;28;20291;-66
2021/03/24 03:29:14;;;;;;;63.80;34.15;;;;;;;8.05;59.65;101587.25;5044454;28;20029;-66
2021/03/24 03:31:41;;;;;;;64.47;33.25;;;;;;;8.47;58.30;101590.47;5016436;28;20021;-65
2021/03/24 03:34:09;;;;;;;60.63;36.40;;;;;;;8.23;58.82;101580.53;5050774;28;20029;-65
2021/03/24 03:36:38;;;;;;;56.53;32.58;;;;;;;8.19;58.58;101582.19;5049308;28;20017;-64
2021/03/24 03:39:05;;;;;;;67.78;34.00;;;;;;;8.20;58.60;101581.31;5048343;28;20021;-65
2021/03/24 03:41:32;;;;;;;63.55;34.35;;;;;;;8.20;58.35;101578.69;5053163;28;20028;-65
2021/03/24 03:43:58;;;;;;;72.15;37.60;;;;;;;7.96;59.04;101587.97;5042441;28;20016;-65
2021/03/24 03:46:26;;;;;;;64.88;33.40;;;;;;;8.20;58.67;101579.59;5036929;28;20082;-65
2021/03/24 03:48:51;;;;;;;69.32;34.45;;;;;;;7.90;59.85;101585.25;5043017;28;20395;-65
2021/03/24 03:51:52;;;;;;;62.92;35.10;;;;;;;8.17;58.64;101571.66;5048653;28;20085;-67
2021/03/24 03:54:33;;;;;;;64.85;34.40;;;;;;;8.26;58.35;101584.06;5046420;28;20098;-66
2021/03/24 03:57:02;;;;;;;;;;;;;;;8.06;58.92;101586.38;5042526;28;20047;-65
2021/03/24 03:59:34;;;;;;;62.55;31.92;;;;;;;7.89;59.62;101583.47;5053782;28;19927;-65
2021/03/24 04:02:01;;;;;;;66.07;35.10;;;;;;;8.28;58.53;101581.47;5036717;28;20021;-64
2021/03/24 04:04:50;;;;;;;64.18;35.03;;;;;;;8.07;58.22;101581.16;5045600;28;20032;-64
2021/03/24 04:07:24;;;;;;;69.55;36.28;;;;;;;7.95;58.92;101584.47;5037155;28;20028;-65
2021/03/24 04:09:49;;;;;;;60.35;33.58;;;;;;;7.92;59.12;101588.78;5049054;28;20025;-64
2021/03/24 04:12:16;;;;;;;67.15;35.75;;;;;;;7.61;59.79;101591.78;5048376;28;20040;-65
2021/03/24 04:14:43;;;;;;;68.30;35.35;;;;;;;7.69;59.32;101584.03;5054589;28;20287;-65
2021/03/24 04:17:12;;;;;;;68.97;35.20;;;;;;;7.63;58.92;101591.78;5039784;28;20130;-65
2021/03/24 04:19:42;;;;;;;64.40;33.47;;;;;;;7.63;59.14;101587.41;5047491;28;20036;-67
2021/03/24 04:22:08;;;;;;;60.72;34.08;;;;;;;7.43;59.13;101581.78;5044470;28;20128;-66
2021/03/24 04:24:40;;;;;;;63.53;33.30;;;;;;;7.44;59.63;101584.44;5047557;28;20167;-67
2021/03/24 04:27:07;;;;;;;57.65;35.75;;;;;;;7.54;59.53;101593.38;5040648;28;20029;-66
2021/03/24 04:29:37;;;;;;;64.63;35.33;;;;;;;7.65;59.43;101595.31;5043683;28;20032;-66
2021/03/24 04:32:04;;;;;;;69.13;36.90;;;;;;;7.47;59.45;101594.13;5038480;28;20031;-65
2021/03/24 04:34:29;;;;;;;70.55;35.78;;;;;;;7.20;60.59;101595.38;5047352;28;20119;-66
2021/03/24 04:37:04;;;;;;;67.85;34.40;;;;;;;7.20;60.24;101598.00;5027859;28;20467;-66
2021/03/24 04:39:38;;;;;;;66.38;35.58;;;;;;;7.28;59.68;101590.28;5053838;28;20033;-66
2021/03/24 04:42:25;;;;;;;62.67;36.40;;;;;;;7.40;59.62;101595.75;5049172;28;20059;-66
2021/03/24 04:44:53;;;;;;;70.78;34.00;;;;;;;7.94;58.60;101590.56;5037446;28;20403;-65
2021/03/24 04:47:22;;;;;;;67.38;36.20;;;;;;;7.70;58.34;101599.81;5027663;28;20063;-64
2021/03/24 04:49:58;;;;;;;70.55;36.25;;;;;;;7.55;59.16;101600.44;5037395;28;20025;-64
2021/03/24 04:52:25;;;;;;;70.32;35.92;;;;;;;7.55;58.35;101605.69;5019665;28;20028;-65
2021/03/24 04:54:52;;;;;;;66.85;36.05;;;;;;;7.13;59.91;101609.22;5048817;28;20032;-66
2021/03/24 04:57:22;;;;;;;65.03;34.78;;;;;;;7.14;59.85;101613.63;5050691;28;20400;-65
2021/03/24 04:59:51;;;;;;;64.57;35.53;;;;;;;7.06;60.29;101613.47;5045992;28;20098;-66
2021/03/24 05:02:29;;;;;;;75.72;36.03;;;;;;;7.17;59.53;101613.69;5029359;28;20028;-66
2021/03/24 05:05:05;;;;;;;65.85;35.92;;;;;;;7.18;59.82;101604.97;5045320;28;20067;-66
2021/03/24 05:07:40;;;;;;;65.70;37.03;;;;;;;7.22;59.18;101609.41;5036260;28;20032;-67
2021/03/24 05:10:07;;;;;;;63.72;35.33;;;;;;;7.02;60.05;101603.75;5044966;28;20035;-65
2021/03/24 05:12:38;;;;;;;67.03;35.42;;;;;;;7.46;58.69;101610.72;5055987;28;20488;-65
2021/03/24 05:15:28;;;;;;;63.30;34.70;;;;;;;7.55;58.57;101612.66;5043645;28;20029;-65
2021/03/24 05:17:54;;;;;;;70.10;36.22;;;;;;;7.09;59.66;101612.63;5037624;28;20509;-67
2021/03/24 05:20:36;;;;;;;63.83;34.08;;;;;;;7.24;59.30;101610.31;5047634;28;20028;-66
2021/03/24 05:23:06;;;;;;;66.43;34.47;;;;;;;7.26;59.90;101611.25;5040369;28;20020;-66
2021/03/24 05:25:35;;;;;;;66.15;34.85;;;;;;;7.36;59.04;101614.03;5039159;28;20099;-67
2021/03/24 05:28:20;;;;;;;73.20;36.05;;;;;;;7.67;58.89;101609.38;5034679;28;20017;-65
2021/03/24 05:30:52;;;;;;;73.35;37.35;;;;;;;7.65;58.52;101611.97;5051350;28;20029;-65
2021/03/24 05:33:19;;;;;;;63.95;35.00;;;;;;;7.99;57.73;101611.66;5035989;28;20025;-65
2021/03/24 05:35:53;;;;;;;73.45;37.70;;;;;;;8.15;56.64;101614.56;5044164;28;20029;-65
2021/03/24 05:38:39;;;;;;;72.20;37.97;;;;;;;7.93;57.59;101609.81;5051428;28;20028;-65
2021/03/24 05:41:26;;;;;;;63.83;35.78;;;;;;;7.74;58.32;101605.13;5037931;28;20111;-64
2021/03/24 05:44:19;;;;;;;66.78;36.25;;;;;;;7.78;58.35;101602.56;5046453;28;20415;-65
2021/03/24 05:47:21;;;;;;;71.07;36.33;;;;;;;7.74;58.42;101605.97;5051743;28;20036;-65
2021/03/24 05:50:31;;;;;;;76.55;38.67;;;;;;;7.65;59.26;101611.97;5051241;28;20020;-66
2021/03/24 05:53:24;;;;;;;69.25;37.05;;;;;;;8.13;57.53;101609.25;5024540;28;20036;-66
2021/03/24 05:56:08;;;;;;;70.38;37.15;;;;;;;7.95;58.38;101607.22;5049396;28;20163;-65
2021/03/24 05:59:09;;;;;;;73.30;37.50;;;;;;;7.94;58.01;101603.69;5051269;28;20113;-64
2021/03/24 06:01:48;;;;;;;74.03;38.05;;;;;;;8.07;57.79;101607.41;4995016;28;20056;-65
2021/03/24 06:04:33;;;;;;;66.38;35.20;;;;;;;8.43;57.19;101601.81;5027767;28;20017;-66
2021/03/24 06:07:20;;;;;;;68.22;35.38;;;;;;;8.57;57.07;101608.19;5020126;28;20017;-65
2021/03/24 06:10:14;;;;;;;77.03;37.10;;;;;;;8.59;57.18;101613.50;5037630;28;20083;-66
2021/03/24 06:13:30;;;;;;;72.75;36.40;;;;;;;8.71;57.30;101602.28;5033506;28;20021;-65
2021/03/24 06:16:20;;;;;;;66.85;36.10;;;;;;;8.68;56.36;101602.22;4937352;29;20042;-65
2021/03/24 06:18:59;;;;;;;61.53;34.17;;;;;;;8.90;55.93;101613.91;5032577;28;20103;-65
2021/03/24 06:21:37;;;;;;;63.65;34.10;;;;;;;8.42;56.37;101615.84;5050477;28;20504;-65
2021/03/24 06:24:08;;;;;;;65.93;33.72;;;;;;;9.09;55.81;101620.28;5036333;28;20083;-65
2021/03/24 06:26:57;;;;;;;66.97;37.05;;;;;;;9.39;54.98;101620.63;5050298;28;20032;-65
2021/03/24 06:29:39;;;;;;;65.93;36.53;;;;;;;9.32;54.89;101616.16;5050559;28;20082;-65
2021/03/24 06:32:33;;;;;;;69.88;38.95;;;;;;;9.03;55.72;101620.22;5040160;28;20035;-66
2021/03/24 06:35:28;;;;;;;62.67;36.70;;;;;;;8.60;57.16;101626.66;5036554;28;20036;-65
2021/03/24 06:38:18;;;;;;;71.60;35.25;;;;;;;8.85;56.37;101626.13;5049317;28;20116;-65
2021/03/24 06:41:01;;;;;;;58.42;34.78;;;;;;;8.87;56.12;101628.78;5045933;28;20041;-65
2021/03/24 06:43:41;;;;;;;61.88;35.67;;;;;;;9.09;55.47;101632.56;5032323;28;20150;-65
2021/03/24 06:46:29;;;;;;;66.47;35.55;;;;;;;9.20;55.25;101630.06;5033218;28;20130;-65
2021/03/24 06:49:07;;;;;;;64.47;34.85;;;;;;;9.21;56.08;101626.56;5033367;28;20028;-65
2021/03/24 06:52:00;;;;;;;65.03;35.90;;;;;;;9.06;55.91;101625.53;5033303;28;20470;-65
2021/03/24 06:55:04;;;;;;;67.03;36.38;;;;;;;8.97;56.57;101638.56;5051491;28;20033;-65
2021/03/24 06:57:54;;;;;;;61.97;35.05;;;;;;;9.11;56.34;101636.09;5051645;28;20400;-65
2021/03/24 07:00:22;;;;;;;57.53;35.10;;;;;;;8.90;55.86;101640.22;5051517;28;20032;-65
2021/03/24 07:03:10;;;;;;;55.15;33.95;;;;;;;9.27;55.82;101634.53;5051306;28;20477;-65
2021/03/24 07:06:14;;;;;;;64.03;34.70;;;;;;;9.55;54.57;101636.59;5033819;28;20032;-65
2021/03/24 07:08:58;;;;;;;66.07;39.47;;;;;;;10.10;53.66;101633.59;5004600;28;20476;-65
2021/03/24 07:11:33;;;;;;;83.70;58.08;;;;;;;10.71;51.99;101630.53;5033377;28;20029;-65
2021/03/24 07:14:13;;;;;;;65.03;36.60;;;;;;;10.67;52.07;101634.91;5051753;28;20041;-66
2021/03/24 07:16:49;;;;;;;69.47;42.55;;;;;;;10.67;51.94;101649.88;5037706;28;20502;-65
2021/03/24 07:19:41;;;;;;;59.47;34.58;;;;;;;10.32;52.11;101649.59;5055332;28;20519;-66
2021/03/24 07:22:31;;;;;;;61.65;34.63;;;;;;;10.96;51.46;101646.50;5037422;28;20094;-65
2021/03/24 07:25:08;;;;;;;62.13;36.05;;;;;;;11.09;51.23;101650.97;5055321;28;20123;-65
2021/03/24 07:28:03;;;;;;;70.45;46.13;;;;;;;10.56;52.22;101642.75;5037722;28;20424;-65
2021/03/24 07:30:53;;;;;;;59.08;34.33;;;;;;;10.62;52.21;101642.81;5037328;28;20063;-66
2021/03/24 07:33:38;;;;;;;61.20;33.58;;;;;;;10.82;51.35;101647.31;5055105;28;20484;-65
2021/03/24 07:36:20;;;;;;;57.30;32.92;;;;;;;10.69;51.48;101654.28;5037272;28;20381;-65
2021/03/24 07:38:51;;;;;;;114.32;78.35;;;;;;;11.17;51.44;101650.97;5054881;28;20036;-65
2021/03/24 07:41:23;;;;;;;;;;;;;;;11.00;50.46;101649.16;5055317;28;20036;-65
2021/03/24 07:44:24;;;;;;;71.43;45.28;;;;;;;10.97;51.54;101654.41;5037062;28;19954;-65
2021/03/24 07:47:10;;;;;;;52.45;32.90;;;;;;;11.44;50.76;101659.88;5037014;28;20039;-65
2021/03/24 07:50:12;;;;;;;120.50;95.68;;;;;;;12.08;49.17;101656.50;5036921;28;20021;-65
2021/03/24 07:53:10;;;;;;;58.70;35.15;;;;;;;11.94;49.48;101650.31;5054608;28;20028;-66
2021/03/24 07:55:39;;;;;;;56.22;34.83;;;;;;;12.06;49.03;101656.50;5036798;28;20123;-66
2021/03/24 07:58:54;;;;;;;56.47;33.50;;;;;;;11.96;49.55;101654.69;5028736;28;20025;-66
2021/03/24 08:01:37;;;;;;;123.88;86.18;;;;;;;12.37;48.60;101653.84;5028690;28;20033;-66
2021/03/24 08:04:44;;;;;;;210.10;133.20;;;;;;;12.42;48.15;101654.75;5054522;28;20025;-66
2021/03/24 08:07:24;;;;;;;66.10;40.10;;;;;;;12.71;47.34;101652.94;5036653;28;20048;-66
2021/03/24 08:10:06;;;;;;;61.50;40.03;;;;;;;13.71;46.89;101656.06;5036482;28;20029;-65
2021/03/24 08:13:03;;;;;;;51.40;33.03;;;;;;;15.10;42.83;101644.19;5036448;28;20135;-66
2021/03/24 08:16:01;;;;;;;57.38;33.95;;;;;;;16.33;41.73;101657.47;5054410;28;20141;-66
2021/03/24 08:18:34;;;;;;;50.22;33.33;;;;;;;16.48;40.01;101645.69;5054255;28;20481;-66
2021/03/24 08:21:18;;;;;;;73.47;47.53;;;;;;;17.89;38.33;101650.72;5054188;28;20025;-66
2021/03/24 08:24:14;;;;;;;50.40;32.65;;;;;;;18.15;38.13;101646.56;5054111;28;20382;-66
2021/03/24 08:26:55;;;;;;;48.05;33.10;;;;;;;18.36;37.21;101650.47;5035171;28;20100;-66
2021/03/24 08:29:54;;;;;;;55.90;35.78;;;;;;;18.49;36.94;101645.69;5036187;28;20031;-66
2021/03/24 08:32:43;;;;;;;48.53;33.70;;;;;;;18.19;36.70;101649.13;5053907;28;20021;-66
2021/03/24 08:35:53;;;;;;;55.28;36.17;;;;;;;18.96;36.15;101647.06;5053975;28;20391;-66
2021/03/24 08:38:42;;;;;;;50.20;33.03;;;;;;;18.53;36.16;101644.69;4953543;29;20054;-66
2021/03/24 08:41:48;;;;;;;46.80;32.80;;;;;;;18.26;36.91;101639.16;4937365;29;20550;-66
2021/03/24 08:44:30;;;;;;;47.45;31.13;;;;;;;18.79;36.40;101642.22;5029776;28;20064;-66
2021/03/24 08:46:58;;;;;;;48.42;32.67;;;;;;;19.46;34.06;101635.81;5036053;28;20033;-66
2021/03/24 08:49:27;;;;;;;52.35;32.40;;;;;;;19.70;34.38;101645.75;5053691;28;20029;-66
2021/03/24 08:51:55;;;;;;;44.40;31.58;;;;;;;20.07;34.45;101641.06;5053495;28;20056;-66
2021/03/24 08:54:43;;;;;;;46.42;32.47;;;;;;;20.61;32.85;101628.44;5035815;28;20385;-66
2021/03/24 08:57:46;;;;;;;50.85;34.03;;;;;;;20.56;33.58;101627.75;5045131;28;20044;-66
2021/03/24 09:00:26;;;;;;;53.58;33.25;;;;;;;19.35;34.53;101644.16;5035458;28;20025;-66
2021/03/24 09:03:16;;;;;;;48.10;32.22;;;;;;;18.71;36.41;101634.44;5035544;28;20025;-66
2021/03/24 09:06:03;;;;;;;66.22;43.50;;;;;;;19.30;34.29;101640.75;5053451;28;20104;-66
2021/03/24 09:08:38;;;;;;;53.28;35.40;;;;;;;19.88;35.14;101642.50;5053297;28;20550;-66
2021/03/24 09:11:16;;;;;;;84.25;61.13;;;;;;;20.94;33.44;101624.59;5035247;28;20033;-66
2021/03/24 09:13:47;;;;;;;52.53;38.05;;;;;;;19.99;33.03;101636.84;5053087;28;20021;-66
2021/03/24 09:16:13;;;;;;;;;;;;;;;20.88;33.24;101624.81;5053620;28;20167;-66
2021/03/24 09:18:44;;;;;;;48.58;32.42;;;;;;;21.75;31.98;101613.44;5053030;28;19908;-66
2021/03/24 09:21:13;;;;;;;43.60;32.30;;;;;;;22.21;31.67;101609.69;5035201;28;20504;-66
2021/03/24 09:23:51;;;;;;;45.65;32.70;;;;;;;23.75;30.07;101619.75;5035184;28;20384;-66
2021/03/24 09:27:14;;;;;;;42.30;31.95;;;;;;;23.16;28.51;101609.97;5035257;28;20017;-66
2021/03/24 09:29:45;;;;;;;45.15;32.33;;;;;;;22.89;28.52;101610.34;4936533;29;20030;-66
2021/03/24 09:32:17;;;;;;;46.53;33.70;;;;;;;22.63;29.38;101609.72;4936558;29;20027;-66
2021/03/24 09:34:50;;;;;;;43.97;32.55;;;;;;;23.54;28.44;101611.81;5006469;28;20151;-66
2021/03/24 09:37:20;;;;;;;42.78;32.53;;;;;;;22.92;29.24;101607.50;5034697;28;20029;-66
2021/03/24 09:39:58;;;;;;;45.17;32.88;;;;;;;23.71;28.86;101606.44;5034889;28;20021;-66
2021/03/24 09:42:37;;;;;;;46.00;33.25;;;;;;;23.76;27.80;101608.00;5034700;28;20029;-66
2021/03/24 09:45:12;;;;;;;44.58;32.33;;;;;;;23.97;28.01;101606.06;5034890;28;20052;-66
2021/03/24 09:47:46;;;;;;;41.40;31.50;;;;;;;24.24;27.61;101607.44;5052602;28;20025;-66
2021/03/24 09:50:11;;;;;;;45.53;33.20;;;;;;;24.88;26.10;101598.69;5052402;28;20033;-66
2021/03/24 09:52:57;;;;;;;45.07;33.53;;;;;;;25.35;25.85;101599.66;5052286;28;20090;-66
2021/03/24 09:55:39;;;;;;;45.53;32.75;;;;;;;26.64;24.62;101602.88;5034535;28;20021;-67
2021/03/24 09:58:14;;;;;;;43.78;32.35;;;;;;;26.73;24.94;101598.72;5051931;28;20068;-66
2021/03/24 10:01:08;;;;;;;42.67;33.20;;;;;;;26.01;24.66;101597.63;5051727;28;20021;-66
2021/03/24 10:03:38;;;;;;;49.72;33.80;;;;;;;26.78;24.62;101579.50;5052431;28;20534;-66
2021/03/24 10:06:17;;;;;;;43.55;32.58;;;;;;;27.70;23.47;101589.81;5034503;28;20070;-65
2021/03/24 10:08:46;;;;;;;40.28;31.75;;;;;;;28.07;23.84;101580.13;5016014;28;20124;-67
2021/03/24 10:11:16;;;;;;;43.83;34.00;;;;;;;28.61;21.90;101576.34;5034166;28;20409;-67
2021/03/24 10:13:46;;;;;;;42.60;33.60;;;;;;;29.12;22.00;101579.09;5005619;28;20025;-67
2021/03/24 10:16:24;;;;;;;;;;;;;;;26.72;24.57;101577.16;5034751;28;20116;-68
2021/03/24 10:19:06;;;;;;;45.38;32.47;;;;;;;29.03;21.99;101576.06;5046154;28;20453;-68
2021/03/24 10:21:37;;;;;;;49.10;33.83;;;;;;;29.18;22.25;101565.06;5030714;28;20021;-67
2021/03/24 10:24:11;;;;;;;48.13;34.45;;;;;;;29.54;22.07;101568.72;5042075;28;20017;-67
2021/03/24 10:26:50;;;;;;;45.95;34.33;;;;;;;29.21;21.21;101567.56;5034192;28;20028;-67
2021/03/24 10:29:19;;;;;;;44.03;32.55;;;;;;;29.43;21.69;101565.91;5029540;28;20384;-67
2021/03/24 10:31:49;;;;;;;46.78;33.25;;;;;;;29.15;21.35;101563.44;5034017;28;20066;-66
2021/03/24 10:34:34;;;;;;;43.13;31.92;;;;;;;29.97;20.39;101555.50;5033940;28;20032;-66
2021/03/24 10:36:59;;;;;;;43.45;32.95;;;;;;;29.30;21.82;101553.25;5034068;28;20166;-66
2021/03/24 10:39:36;;;;;;;45.83;33.03;;;;;;;28.86;21.81;101569.16;5033726;28;20111;-66
2021/03/24 10:42:17;;;;;;;45.15;32.67;;;;;;;29.53;20.95;101576.94;5047625;28;20028;-65
2021/03/24 10:44:48;;;;;;;44.70;33.10;;;;;;;30.54;20.31;101588.22;5048621;28;21274;-67
2021/03/24 10:47:31;;;;;;;41.47;33.05;;;;;;;30.52;20.11;101597.50;5037630;28;20029;-67
2021/03/24 10:50:18;;;;;;;48.33;34.85;;;;;;;28.99;21.62;101600.84;5032410;28;20025;-67
2021/03/24 10:52:58;;;;;;;43.78;31.90;;;;;;;30.77;19.61;101592.84;5050765;28;20025;-66
2021/03/24 10:55:25;;;;;;;47.67;35.77;;;;;;;29.27;20.57;101590.66;5051753;28;20108;-67
2021/03/24 10:58:00;;;;;;;44.95;33.70;;;;;;;29.67;20.68;101575.94;5033846;28;20267;-66
2021/03/24 11:00:31;;;;;;;44.03;32.35;;;;;;;30.19;20.90;101557.44;5032534;28;20017;-66
2021/03/24 11:03:25;;;;;;;38.88;31.40;;;;;;;29.20;20.68;101547.66;5027292;28;20025;-66
2021/03/24 11:05:55;;;;;;;45.72;33.35;;;;;;;29.62;21.09;101535.53;5041750;28;20021;-66
2021/03/24 11:08:43;;;;;;;36.25;29.95;;;;;;;30.06;20.37;101530.31;5032108;28;20059;-66
2021/03/24 11:11:16;;;;;;;44.08;32.03;;;;;;;30.81;19.93;101524.41;5030584;28;20484;-66
2021/03/24 11:13:58;;;;;;;44.30;32.55;;;;;;;32.72;17.88;101519.13;5031616;28;20083;-66
2021/03/24 11:16:29;;;;;;;43.55;33.40;;;;;;;32.33;18.77;101515.25;5031513;28;20022;-66
2021/03/24 11:19:05;;;;;;;42.22;31.95;;;;;;;32.41;18.61;101516.41;5038280;28;20104;-66
2021/03/24 11:21:40;;;;;;;38.45;30.83;;;;;;;31.79;18.36;101518.09;5030244;28;20026;-66
2021/03/24 11:24:14;;;;;;;40.38;30.08;;;;;;;32.38;17.92;101503.91;5031342;28;20025;-67
2021/03/24 11:27:01;;;;;;;40.60;30.33;;;;;;;32.31;18.10;101519.13;5031465;28;20388;-67
2021/03/24 11:29:28;;;;;;;38.97;30.63;;;;;;;30.25;20.25;101504.41;5031143;28;20049;-67
2021/03/24 11:32:01;;;;;;;40.15;30.33;;;;;;;29.75;20.29;101504.66;5030060;28;20045;-67
2021/03/24 11:34:33;;;;;;;38.83;29.80;;;;;;;30.07;19.94;101501.25;5044959;28;20029;-66
2021/03/24 11:37:04;;;;;;;40.53;32.67;;;;;;;28.70;20.89;101498.81;5050011;28;20139;-66
2021/03/24 11:39:38;;;;;;;40.75;31.23;;;;;;;28.80;21.60;101499.88;5039227;28;20025;-66
2021/03/24 11:42:12;;;;;;;44.22;32.47;;;;;;;29.14;20.66;101498.38;5029475;28;20037;-66
2021/03/24 11:44:38;;;;;;;43.63;31.65;;;;;;;29.10;21.09;101499.59;5029978;28;20024;-67
2021/03/24 11:47:15;;;;;;;43.70;32.10;;;;;;;29.02;20.82;101487.47;5029297;28;20048;-67
2021/03/24 11:49:55;;;;;;;39.83;31.17;;;;;;;30.96;19.82;101486.88;5036178;28;20035;-65
2021/03/24 11:52:33;;;;;;;41.03;31.10;;;;;;;30.48;19.67;101479.91;5026099;28;20176;-68
2021/03/24 11:55:36;;;;;;;48.17;32.13;;;;;;;31.30;19.31;101469.50;5026930;28;20049;-66
2021/03/24 11:58:07;;;;;;;42.17;30.23;;;;;;;31.30;19.47;101474.97;5026643;28;20396;-66